< < Back
Terminal Aerodrome Forecast


Current Version              Previous Versions:   1  2  3  4  5  6  7  8  9  

Terminal Aerodrome Forecast

698
FTUS42 KTAE 261720
TAFDHN
TAF
KDHN 261720Z 2618/2718 08010KT P6SM FEW060
     FM270000 09005KT P6SM SKC=



Latest METAR

938
SAUS70 KWBC 262000 RRM
MTRDHN
METAR KDHN 261953Z 04008KT 10SM FEW060 SCT070 33/22 A3004 RMK AO2 SLP166
T03280222


USA.gov is the U.S. government's official web portal to all federal, state and local government web resources and services.